Del Rio International Airport
KDRT : rendu visible

Aérodrome :











RETROUVEZ-NOUS SUR...

 
LOGIN :

S'inscrire | Disclaimer

   EN    FR    IT 

 









Légende :    VFR   VFR Marginal   IFR   IFR Intensif   IFR Très Intensif
Visi : 
Plafond : 
>= 8 km
>= 3000ft
5 à 8 km
1000 à 3000 ft
1500m à 5 km
500 à 1000 ft
800 à 1500m
200 à 500 ft
< 800m
< 200 ft
Symboles :   Orages  Brouillard  Fortes neiges  Fortes précipitations  Vent > 20 kt






- Altitude de l'aérodrome : 1002 ft


KDRT - Del Rio International

DERNIER METAR :
  • 102353Z AUTO 14014G22KT 10SM CLR 39/16 A2987 RMK AO2 PK WND 14027/2330 SLP095 T03890161 10400 20356 56016 $

METARs EXPIRÉS :
  • 102253Z AUTO 15018G26KT 10SM CLR 39/16 A2987 RMK AO2 PK WND 14030/2220 SLP097 T03940161 $
  • 102153Z AUTO 14015G28KT 10SM CLR 39/16 A2989 RMK AO2 PK WND 12030/2055 SLP101 T03940161 $

TAF KDRT
Valide du 11 à 00h jusqu'au 12 à 00h UTC


102321Z 1100/1124 14014G24KT P6SM FEW080
FM110400 12010KT P6SM SKC
FM111200 14012G22KT P6SM FEW050
FIR KZHU / Amérique du Nord



MET'MAP, la Météo Aéronautique d'un coup d'oeil ! - Copyright ORBIFLY Décembre 2007 - Disclaimer

ORBIFLY MET'MAP TEAM :

Programmation & Développement : Alexandra Zaïnal
Sur une idée originale de : Baudouin d'Aumeries
Assistance à la programmation : Marc-Olivier Méhu
Soutien technique & logistique : Manuel Goepfert

Contact : metmap@orbifly.com




SOURCES & CREDITS :

   NOAA       Earth
Advisory